Time;durP1;ratioP1;P1;durP2;ratioP2;P2;SDS_P1;SDS_P2;PMS_P1;PMS_P2;Temp;Humidity;BMP_temperature;BMP_pressure;BME280_temperature;BME280_humidity;BME280_pressure;Samples;Min_cycle;Max_cycle;Signal;HPM_P1;HPM_P2
2022/05/12 00:01:51;;;;;;;3.40;2.30;;;;;;;;;;5055211;28;20210;-89
2022/05/12 00:04:18;;;;;;;2.60;1.95;;;;;;;;;;5054235;28;20238;-88
2022/05/12 00:06:45;;;;;;;2.28;2.08;;;;;;;;;;5054998;28;20210;-88
2022/05/12 00:09:12;;;;;;;2.30;2.03;;;;;;;;;;5054581;28;20230;-88
2022/05/12 00:11:39;;;;;;;3.75;2.20;;;;;;;;;;5054766;28;20202;-89
2022/05/12 00:14:08;;;;;;;2.75;2.17;;;;;;;;;;5053756;28;20238;-88
2022/05/12 00:16:35;;;;;;;3.42;2.03;;;;;;;;;;5054535;28;20205;-88
2022/05/12 00:19:02;;;;;;;3.60;1.77;;;;;;;;;;5054008;28;20641;-88
2022/05/12 00:21:29;;;;;;;2.80;2.05;;;;;;;;;;5054974;28;20267;-87
2022/05/12 00:23:59;;;;;;;4.63;2.08;;;;;;;;;;5053848;28;20242;-88
2022/05/12 00:26:26;;;;;;;4.15;2.25;;;;;;;;;;5054439;28;20209;-87
2022/05/12 00:28:53;;;;;;;2.40;2.20;;;;;;;;;;5053951;28;20256;-88
2022/05/12 00:31:22;;;;;;;4.10;2.00;;;;;;;;;;5054038;28;20217;-86
2022/05/12 00:33:49;;;;;;;4.20;2.20;;;;;;;;;;5053365;28;20238;-87
2022/05/12 00:36:16;;;;;;;2.25;2.00;;;;;;;;;;5054125;28;20210;-88
2022/05/12 00:38:43;;;;;;;2.85;2.55;;;;;;;;;;5054027;28;20256;-87
2022/05/12 00:41:10;;;;;;;3.92;2.33;;;;;;;;;;5054463;28;20198;-87
2022/05/12 00:43:42;;;;;;;4.00;2.20;;;;;;;;;;5053775;28;20233;-88
2022/05/12 00:46:10;;;;;;;1.98;1.85;;;;;;;;;;5054562;28;20221;-87
2022/05/12 00:48:39;;;;;;;2.00;1.90;;;;;;;;;;5053787;28;20237;-88
2022/05/12 00:51:07;;;;;;;3.22;1.85;;;;;;;;;;5054214;28;20209;-86
2022/05/12 00:53:35;;;;;;;2.78;1.80;;;;;;;;;;5053077;28;20241;-88
2022/05/12 00:56:04;;;;;;;5.13;2.30;;;;;;;;;;5053851;28;20202;-88
2022/05/12 00:58:33;;;;;;;5.47;2.35;;;;;;;;;;5053195;28;20677;-89
2022/05/12 01:01:00;;;;;;;1.70;1.60;;;;;;;;;;5053607;28;20598;-86
2022/05/12 01:03:28;;;;;;;3.30;1.60;;;;;;;;;;5045768;28;20222;-88
2022/05/12 01:05:57;;;;;;;2.78;1.58;;;;;;;;;;5043097;28;20209;-87
2022/05/12 01:08:24;;;;;;;2.08;1.80;;;;;;;;;;5053477;28;20666;-89
2022/05/12 01:10:54;;;;;;;4.88;2.20;;;;;;;;;;5053739;28;20210;-88
2022/05/12 01:13:22;;;;;;;2.15;1.63;;;;;;;;;;5052798;28;20233;-88
2022/05/12 01:15:53;;;;;;;1.83;1.60;;;;;;;;;;5053530;28;20208;-88
2022/05/12 01:18:20;;;;;;;5.40;2.13;;;;;;;;;;5053224;28;20214;-87
2022/05/12 01:20:48;;;;;;;2.33;1.90;;;;;;;;;;5053735;28;20206;-87
2022/05/12 01:23:22;;;;;;;2.85;1.70;;;;;;;;;;5053046;28;20222;-87
2022/05/12 01:25:49;;;;;;;2.45;1.85;;;;;;;;;;5053588;28;20206;-88
2022/05/12 01:28:16;;;;;;;2.70;1.98;;;;;;;;;;5053769;28;20198;-89
2022/05/12 01:30:43;;;;;;;3.75;1.80;;;;;;;;;;5063662;28;20213;-87
2022/05/12 01:33:10;;;;;;;4.30;2.10;;;;;;;;;;5052489;28;20234;-87
2022/05/12 01:35:38;;;;;;;1.88;1.77;;;;;;;;;;5053385;28;20217;-88
2022/05/12 01:38:05;;;;;;;2.22;1.63;;;;;;;;;;5052873;28;20225;-88
2022/05/12 01:40:33;;;;;;;1.92;1.70;;;;;;;;;;5052204;28;20234;-88
2022/05/12 01:43:00;;;;;;;3.15;1.95;;;;;;;;;;5052653;28;20229;-88
2022/05/12 01:45:27;;;;;;;3.17;1.95;;;;;;;;;;5052238;28;20238;-88
2022/05/12 01:47:54;;;;;;;2.53;1.67;;;;;;;;;;5053068;28;20214;-88
2022/05/12 01:50:22;;;;;;;3.50;2.10;;;;;;;;;;5052207;28;20233;-88
2022/05/12 01:52:50;;;;;;;2.00;1.90;;;;;;;;;;5053487;28;20327;-88
2022/05/12 01:55:18;;;;;;;2.78;1.90;;;;;;;;;;5052387;28;20229;-88
2022/05/12 01:57:46;;;;;;;3.53;1.80;;;;;;;;;;5053056;28;20210;-88
2022/05/12 02:00:14;;;;;;;3.10;2.00;;;;;;;;;;5052281;28;20241;-89
2022/05/12 02:02:42;;;;;;;2.00;1.90;;;;;;;;;;5052638;28;20206;-86
2022/05/12 02:05:11;;;;;;;5.47;2.10;;;;;;;;;;5051891;28;20230;-89
2022/05/12 02:07:39;;;;;;;4.30;2.15;;;;;;;;;;5053176;28;20276;-88
2022/05/12 02:10:06;;;;;;;2.65;1.85;;;;;;;;;;5052358;28;20233;-88
2022/05/12 02:12:33;;;;;;;2.50;1.92;;;;;;;;;;5052522;28;20202;-89
2022/05/12 02:15:02;;;;;;;3.58;1.73;;;;;;;;;;5051762;28;20248;-87
2022/05/12 02:17:29;;;;;;;1.95;1.83;;;;;;;;;;5052858;28;20213;-89
2022/05/12 02:19:56;;;;;;;2.20;2.00;;;;;;;;;;5052212;28;20242;-89
2022/05/12 02:22:23;;;;;;;4.60;2.10;;;;;;;;;;5052963;28;20213;-88
2022/05/12 02:24:50;;;;;;;2.65;2.00;;;;;;;;;;5051820;28;20611;-89
2022/05/12 02:27:17;;;;;;;2.40;2.28;;;;;;;;;;5052636;28;20660;-89
2022/05/12 02:29:44;;;;;;;3.45;2.28;;;;;;;;;;5052024;28;20623;-89
2022/05/12 02:32:12;;;;;;;3.10;1.70;;;;;;;;;;5052624;28;20201;-88
2022/05/12 02:34:40;;;;;;;7.28;1.92;;;;;;;;;;5052367;28;20628;-89
2022/05/12 02:37:08;;;;;;;4.18;1.77;;;;;;;;;;5053849;28;20214;-89
2022/05/12 02:39:36;;;;;;;2.22;1.77;;;;;;;;;;5052667;28;20242;-90
2022/05/12 02:42:03;;;;;;;3.03;1.83;;;;;;;;;;5052716;28;20214;-88
2022/05/12 02:44:31;;;;;;;2.53;2.00;;;;;;;;;;5052146;28;20237;-88
2022/05/12 02:46:58;;;;;;;2.10;1.92;;;;;;;;;;5052630;28;20206;-88
2022/05/12 02:49:26;;;;;;;2.67;1.80;;;;;;;;;;5051867;28;20237;-88
2022/05/12 02:51:54;;;;;;;4.10;1.98;;;;;;;;;;5052291;28;20213;-89
2022/05/12 02:54:21;;;;;;;3.83;3.45;;;;;;;;;;5051462;28;20237;-89
2022/05/12 02:56:49;;;;;;;2.88;2.58;;;;;;;;;;5052169;28;20202;-89
2022/05/12 02:59:17;;;;;;;1.60;1.50;;;;;;;;;;5051657;28;20767;-88
2022/05/12 03:01:44;;;;;;;1.98;1.88;;;;;;;;;;5052227;28;20206;-88
2022/05/12 03:04:11;;;;;;;1.75;1.65;;;;;;;;;;5051774;28;20249;-88
2022/05/12 03:06:40;;;;;;;1.67;1.58;;;;;;;;;;5052305;28;20713;-88
2022/05/12 03:09:07;;;;;;;2.72;2.00;;;;;;;;;;5051707;28;20234;-89
2022/05/12 03:11:34;;;;;;;1.92;1.83;;;;;;;;;;5052049;28;20565;-88
2022/05/12 03:14:03;;;;;;;1.92;1.73;;;;;;;;;;5051234;28;20237;-89
2022/05/12 03:16:30;;;;;;;1.73;1.60;;;;;;;;;;5052445;28;20218;-89
2022/05/12 03:18:57;;;;;;;4.95;1.90;;;;;;;;;;5051657;28;20320;-89
2022/05/12 03:21:24;;;;;;;2.30;1.67;;;;;;;;;;5052042;28;20198;-89
2022/05/12 03:23:53;;;;;;;3.05;1.90;;;;;;;;;;5051938;28;20233;-89
2022/05/12 03:26:20;;;;;;;3.22;1.80;;;;;;;;;;5052201;28;20210;-88
2022/05/12 03:28:47;;;;;;;3.83;1.70;;;;;;;;;;5053475;28;20225;-88
2022/05/12 03:31:14;;;;;;;2.08;1.80;;;;;;;;;;5055620;28;20240;-88
2022/05/12 03:33:41;;;;;;;2.47;1.63;;;;;;;;;;5054351;28;20697;-89
2022/05/12 03:36:09;;;;;;;1.70;1.60;;;;;;;;;;5055399;28;20206;-88
2022/05/12 03:38:36;;;;;;;5.53;2.13;;;;;;;;;;5054682;28;20237;-89
2022/05/12 03:41:05;;;;;;;2.28;1.65;;;;;;;;;;5055330;28;20223;-88
2022/05/12 03:46:17;;;;;;;2.40;1.63;;;;;;;;;;5055630;28;20557;-88
2022/05/12 03:48:44;;;;;;;1.95;1.73;;;;;;;;;;5055020;28;20733;-89
2022/05/12 03:51:12;;;;;;;2.28;1.70;;;;;;;;;;5055926;28;20217;-88
2022/05/12 03:53:40;;;;;;;1.90;1.80;;;;;;;;;;5054270;28;20253;-89
2022/05/12 03:56:09;;;;;;;2.50;1.63;;;;;;;;;;5055127;28;20214;-88
2022/05/12 03:58:37;;;;;;;1.80;1.67;;;;;;;;;;5054682;28;20234;-88
2022/05/12 04:01:04;;;;;;;2.33;1.70;;;;;;;;;;5053124;28;20220;-88
2022/05/12 04:03:31;;;;;;;1.48;1.38;;;;;;;;;;5049377;28;20238;-87
2022/05/12 04:06:01;;;;;;;2.33;1.45;;;;;;;;;;5045350;28;20209;-89
2022/05/12 04:08:28;;;;;;;2.10;1.80;;;;;;;;;;5037907;28;20234;-88
2022/05/12 04:10:58;;;;;;;2.17;1.98;;;;;;;;;;5036436;28;20214;-88
2022/05/12 04:13:26;;;;;;;1.55;1.45;;;;;;;;;;5038596;28;20269;-89
2022/05/12 04:15:54;;;;;;;3.95;1.60;;;;;;;;;;5038429;28;20241;-89
2022/05/12 04:18:21;;;;;;;2.15;1.63;;;;;;;;;;5044795;28;20209;-88
2022/05/12 04:20:48;;;;;;;1.98;1.50;;;;;;;;;;5050720;28;20540;-89
2022/05/12 04:23:15;;;;;;;2.50;1.60;;;;;;;;;;5033959;28;20219;-89
2022/05/12 04:25:42;;;;;;;1.70;1.60;;;;;;;;;;5037092;28;20214;-88
2022/05/12 04:28:09;;;;;;;1.77;1.67;;;;;;;;;;5053855;28;20210;-89
2022/05/12 04:30:38;;;;;;;2.00;1.60;;;;;;;;;;5046056;28;20207;-89
2022/05/12 04:35:50;;;;;;;4.03;2.17;;;;;;;;;;5054590;28;20777;-90
2022/05/12 04:38:17;;;;;;;2.60;1.77;;;;;;;;;;5054202;28;20267;-89
2022/05/12 04:40:45;;;;;;;2.55;1.58;;;;;;;;;;5055153;28;20212;-91
2022/05/12 04:43:12;;;;;;;2.08;1.50;;;;;;;;;;5064295;28;20281;-88
2022/05/12 04:45:40;;;;;;;4.30;2.08;;;;;;;;;;5058878;28;20198;-88
2022/05/12 04:48:08;;;;;;;1.80;1.70;;;;;;;;;;5059302;28;20225;-88
2022/05/12 04:50:36;;;;;;;2.00;1.80;;;;;;;;;;5062077;28;20199;-88
2022/05/12 04:53:04;;;;;;;8.82;2.00;;;;;;;;;;5061243;28;20237;-88
2022/05/12 04:55:33;;;;;;;1.88;1.65;;;;;;;;;;5060332;28;20226;-88
2022/05/12 04:58:00;;;;;;;3.25;1.77;;;;;;;;;;5048183;28;20214;-88
2022/05/12 05:00:29;;;;;;;4.10;2.00;;;;;;;;;;5061058;28;20226;-88
2022/05/12 05:02:57;;;;;;;1.88;1.58;;;;;;;;;;5046190;28;20202;-88
2022/05/12 05:05:25;;;;;;;2.78;1.83;;;;;;;;;;5037683;28;20698;-88
2022/05/12 05:07:52;;;;;;;3.03;1.88;;;;;;;;;;5045108;28;20651;-89
2022/05/12 05:10:19;;;;;;;2.67;1.80;;;;;;;;;;5053444;28;20261;-88
2022/05/12 05:12:46;;;;;;;2.10;1.75;;;;;;;;;;5054051;28;20209;-88
2022/05/12 05:15:14;;;;;;;3.15;2.28;;;;;;;;;;5053680;28;20237;-89
2022/05/12 05:17:42;;;;;;;1.70;1.60;;;;;;;;;;5041886;28;20211;-90
2022/05/12 05:20:13;;;;;;;3.42;2.10;;;;;;;;;;5033657;28;20234;-84
2022/05/12 05:22:40;;;;;;;3.88;2.03;;;;;;;;;;5034410;28;20213;-83
2022/05/12 05:25:08;;;;;;;1.80;1.70;;;;;;;;;;5033737;28;20241;-85
2022/05/12 05:27:35;;;;;;;3.05;1.85;;;;;;;;;;5037781;28;20274;-85
2022/05/12 05:30:02;;;;;;;3.00;1.90;;;;;;;;;;5035382;28;20768;-84
2022/05/12 05:32:29;;;;;;;2.00;1.90;;;;;;;;;;5035010;28;20194;-85
2022/05/12 05:34:57;;;;;;;2.70;1.98;;;;;;;;;;5033752;28;20246;-85
2022/05/12 05:37:25;;;;;;;2.77;1.97;;;;;;;;;;5033746;28;20215;-85
2022/05/12 05:39:52;;;;;;;4.18;2.00;;;;;;;;;;5033240;28;20753;-84
2022/05/12 05:42:20;;;;;;;6.43;2.08;;;;;;;;;;5033377;28;20605;-85
2022/05/12 05:44:47;;;;;;;2.43;2.20;;;;;;;;;;5032267;28;20661;-84
2022/05/12 05:47:14;;;;;;;2.73;2.00;;;;;;;;;;5034041;28;20908;-84
2022/05/12 05:49:42;;;;;;;2.87;2.03;;;;;;;;;;5032983;28;20322;-85
2022/05/12 05:54:55;;;;;;;3.53;2.00;;;;;;;;;;5033665;28;20296;-87
2022/05/12 05:57:24;;;;;;;4.10;2.00;;;;;;;;;;5034242;28;20211;-88
2022/05/12 05:59:52;;;;;;;2.70;2.05;;;;;;;;;;5034272;28;20703;-87
2022/05/12 06:02:19;;;;;;;2.45;1.60;;;;;;;;;;5050731;28;20217;-87
2022/05/12 06:04:46;;;;;;;3.60;1.70;;;;;;;;;;5037714;28;20229;-88
2022/05/12 06:07:13;;;;;;;3.65;1.50;;;;;;;;;;5044643;28;20217;-87
2022/05/12 06:09:41;;;;;;;1.70;1.60;;;;;;;;;;5051812;28;20225;-88
2022/05/12 06:12:10;;;;;;;1.42;1.33;;;;;;;;;;5053738;28;20631;-87
2022/05/12 06:14:38;;;;;;;1.80;1.60;;;;;;;;;;5052479;28;20245;-88
2022/05/12 06:17:06;;;;;;;3.40;1.90;;;;;;;;;;5052364;28;20190;-87
2022/05/12 06:19:33;;;;;;;3.95;1.50;;;;;;;;;;5051732;28;20238;-87
2022/05/12 06:22:01;;;;;;;1.92;1.60;;;;;;;;;;5053862;28;20206;-88
2022/05/12 06:24:28;;;;;;;4.50;1.92;;;;;;;;;;5052773;28;20768;-88
2022/05/12 06:26:55;;;;;;;3.20;1.85;;;;;;;;;;5051773;28;20209;-88
2022/05/12 06:29:23;;;;;;;2.03;1.30;;;;;;;;;;5052696;28;20241;-87
2022/05/12 06:31:50;;;;;;;2.03;1.60;;;;;;;;;;5052776;28;20670;-87
2022/05/12 06:34:17;;;;;;;4.70;1.67;;;;;;;;;;5052933;28;20325;-87
2022/05/12 06:36:45;;;;;;;3.67;1.55;;;;;;;;;;5061832;28;20237;-86
2022/05/12 06:39:12;;;;;;;4.60;1.92;;;;;;;;;;5035012;28;20256;-87
2022/05/12 06:41:40;;;;;;;1.73;1.60;;;;;;;;;;5036220;28;20207;-87
2022/05/12 06:44:07;;;;;;;4.13;1.75;;;;;;;;;;5032981;28;20240;-87
2022/05/12 06:46:37;;;;;;;3.15;1.73;;;;;;;;;;5033946;28;20210;-87
2022/05/12 06:49:05;;;;;;;3.13;1.60;;;;;;;;;;5038559;28;20229;-86
2022/05/12 06:51:32;;;;;;;2.85;1.85;;;;;;;;;;5055904;28;20210;-87
2022/05/12 06:53:59;;;;;;;2.50;1.52;;;;;;;;;;5048974;28;20288;-88
2022/05/12 06:56:26;;;;;;;2.30;1.88;;;;;;;;;;5052166;28;20209;-88
2022/05/12 06:58:54;;;;;;;2.20;1.70;;;;;;;;;;5036134;28;20234;-88
2022/05/12 07:01:21;;;;;;;1.65;1.55;;;;;;;;;;5052766;28;20217;-87
2022/05/12 07:03:50;;;;;;;3.80;1.70;;;;;;;;;;5050825;28;20749;-87
2022/05/12 07:06:18;;;;;;;2.60;1.60;;;;;;;;;;5038980;28;20222;-86
2022/05/12 07:08:45;;;;;;;2.10;1.70;;;;;;;;;;5051087;28;20283;-86
2022/05/12 07:11:13;;;;;;;1.55;1.40;;;;;;;;;;5055634;28;20605;-86
2022/05/12 07:13:40;;;;;;;3.17;1.60;;;;;;;;;;5058312;28;20234;-86
2022/05/12 07:16:08;;;;;;;1.55;1.45;;;;;;;;;;5057345;28;20704;-86
2022/05/12 07:18:36;;;;;;;2.13;1.63;;;;;;;;;;5054135;28;20229;-86
2022/05/12 07:26:40;;;;;;;5.15;1.67;;;;;;;;;;5059631;28;20591;-89
2022/05/12 07:29:09;;;;;;;3.65;2.40;;;;;;;;;;5057061;28;20272;-88
2022/05/12 07:31:36;;;;;;;3.10;1.55;;;;;;;;;;5069426;28;20701;-87
2022/05/12 07:34:03;;;;;;;3.60;1.60;;;;;;;;;;5038232;28;20246;-87
2022/05/12 07:36:33;;;;;;;3.25;1.77;;;;;;;;;;5043456;28;20214;-88
2022/05/12 07:39:01;;;;;;;1.88;1.42;;;;;;;;;;5056809;28;20234;-86
2022/05/12 07:41:28;;;;;;;2.25;1.50;;;;;;;;;;5057407;28;20201;-86
2022/05/12 07:43:56;;;;;;;4.10;1.58;;;;;;;;;;5055768;28;20248;-86
2022/05/12 07:46:25;;;;;;;2.55;1.38;;;;;;;;;;5056234;28;20210;-88
2022/05/12 07:48:52;;;;;;;4.72;1.50;;;;;;;;;;5055856;28;20316;-87
2022/05/12 07:51:20;;;;;;;2.55;1.30;;;;;;;;;;5056223;28;20202;-88
2022/05/12 07:53:49;;;;;;;2.25;1.30;;;;;;;;;;5055333;28;20234;-86
2022/05/12 07:56:16;;;;;;;2.05;1.67;;;;;;;;;;5054349;28;20261;-86
2022/05/12 07:58:44;;;;;;;2.50;1.30;;;;;;;;;;5057264;28;20598;-87
2022/05/12 08:01:12;;;;;;;3.50;1.10;;;;;;;;;;5055278;28;20213;-87
2022/05/12 08:03:39;;;;;;;1.20;1.10;;;;;;;;;;5054747;28;20244;-87
2022/05/12 08:06:07;;;;;;;1.83;1.33;;;;;;;;;;5055979;28;20216;-87
2022/05/12 08:08:34;;;;;;;1.45;1.20;;;;;;;;;;5055506;28;20312;-86
2022/05/12 08:11:02;;;;;;;3.80;1.48;;;;;;;;;;5055448;28;20830;-87
2022/05/12 08:13:29;;;;;;;3.03;1.35;;;;;;;;;;5054909;28;20234;-86
2022/05/12 08:15:56;;;;;;;2.80;1.30;;;;;;;;;;5053395;28;20222;-88
2022/05/12 08:18:24;;;;;;;4.43;1.60;;;;;;;;;;5054007;28;20206;-87
2022/05/12 08:20:52;;;;;;;3.10;1.40;;;;;;;;;;5053463;28;20206;-87
2022/05/12 08:23:19;;;;;;;3.25;1.52;;;;;;;;;;5052849;28;20225;-86
2022/05/12 08:25:47;;;;;;;2.50;1.45;;;;;;;;;;5053141;28;20613;-88
2022/05/12 08:28:16;;;;;;;1.95;1.30;;;;;;;;;;5053661;28;20207;-87
2022/05/12 08:30:44;;;;;;;1.30;1.20;;;;;;;;;;5053588;28;20206;-87
2022/05/12 08:33:11;;;;;;;3.42;1.70;;;;;;;;;;5052859;28;20280;-88
2022/05/12 08:35:38;;;;;;;2.15;1.00;;;;;;;;;;5052543;28;20230;-86
2022/05/12 08:38:06;;;;;;;3.15;1.15;;;;;;;;;;5052838;28;20202;-87
2022/05/12 08:40:37;;;;;;;2.17;1.10;;;;;;;;;;5053549;28;20202;-86
2022/05/12 08:43:08;;;;;;;3.58;1.05;;;;;;;;;;5052819;28;20226;-87
2022/05/12 08:45:37;;;;;;;2.00;1.38;;;;;;;;;;5052512;28;20222;-88
2022/05/12 08:48:04;;;;;;;1.02;1.00;;;;;;;;;;5053346;28;20206;-87
2022/05/12 08:50:33;;;;;;;4.88;1.48;;;;;;;;;;5052903;28;20595;-87
2022/05/12 08:53:01;;;;;;;5.65;1.25;;;;;;;;;;5065550;28;20236;-87
2022/05/12 08:55:30;;;;;;;1.83;1.10;;;;;;;;;;5053436;28;20229;-87
2022/05/12 08:57:59;;;;;;;2.03;1.25;;;;;;;;;;5053761;28;20210;-88
2022/05/12 09:00:27;;;;;;;1.63;1.30;;;;;;;;;;5052282;28;20241;-88
2022/05/12 09:03:01;;;;;;;2.33;1.02;;;;;;;;;;5052870;28;20260;-86
2022/05/12 09:05:30;;;;;;;2.95;1.38;;;;;;;;;;5051297;28;20610;-87
2022/05/12 09:08:02;;;;;;;1.80;1.02;;;;;;;;;;5041837;28;20207;-87
2022/05/12 09:10:36;;;;;;;2.63;1.50;;;;;;;;;;5031944;28;20241;-87
2022/05/12 09:13:04;;;;;;;1.20;1.10;;;;;;;;;;5035027;28;20287;-86
2022/05/12 09:15:32;;;;;;;1.05;1.05;;;;;;;;;;5034358;28;20238;-86
2022/05/12 09:18:01;;;;;;;2.85;1.20;;;;;;;;;;5035417;28;20211;-88
2022/05/12 09:20:30;;;;;;;1.45;1.15;;;;;;;;;;5033818;28;20715;-88
2022/05/12 09:22:57;;;;;;;3.17;1.30;;;;;;;;;;5045747;28;20206;-86
2022/05/12 09:25:32;;;;;;;2.78;1.40;;;;;;;;;;5040363;28;20261;-87
2022/05/12 09:27:59;;;;;;;2.45;1.40;;;;;;;;;;5034056;28;20591;-87
2022/05/12 09:30:34;;;;;;;3.72;1.33;;;;;;;;;;5033920;28;20765;-87
2022/05/12 09:33:02;;;;;;;2.78;1.35;;;;;;;;;;5034140;28;20233;-87
2022/05/12 09:35:30;;;;;;;1.58;1.33;;;;;;;;;;5031589;28;20238;-87
2022/05/12 09:37:57;;;;;;;1.80;1.40;;;;;;;;;;5033803;28;20183;-87
2022/05/12 09:40:34;;;;;;;5.05;1.40;;;;;;;;;;5033126;28;20238;-86
2022/05/12 09:43:03;;;;;;;1.73;1.00;;;;;;;;;;5033311;28;20241;-86
2022/05/12 09:45:32;;;;;;;1.05;0.73;;;;;;;;;;5033149;28;20223;-86
2022/05/12 09:48:19;;;;;;;2.17;1.30;;;;;;;;;;5036591;28;20687;-87
2022/05/12 09:50:46;;;;;;;3.20;1.20;;;;;;;;;;5052692;28;20248;-86
2022/05/12 09:53:14;;;;;;;2.83;1.10;;;;;;;;;;5052283;28;20725;-87
2022/05/12 09:55:42;;;;;;;3.22;1.30;;;;;;;;;;5053001;28;20214;-86
2022/05/12 09:58:27;;;;;;;1.55;1.10;;;;;;;;;;5042608;28;20209;-87
2022/05/12 10:01:06;;;;;;;2.63;1.10;;;;;;;;;;5054209;28;20651;-87
2022/05/12 10:09:15;;;;;;;2.20;1.23;;;;;;;;;;5053959;28;20236;-87
2022/05/12 10:11:45;;;;;;;1.35;0.95;;;;;;;;;;5053614;28;20202;-87
2022/05/12 10:14:19;;;;;;;2.70;1.25;;;;;;;;;;5050882;28;20234;-87
2022/05/12 10:16:46;;;;;;;3.17;1.33;;;;;;;;;;5051441;28;20202;-87
2022/05/12 10:19:22;;;;;;;2.15;1.45;;;;;;;;;;5052358;28;20237;-86
2022/05/12 10:21:52;;;;;;;4.07;1.60;;;;;;;;;;5054490;28;20190;-88
2022/05/12 10:24:21;;;;;;;1.20;1.02;;;;;;;;;;5057181;28;20234;-86
2022/05/12 10:26:51;;;;;;;2.47;1.17;;;;;;;;;;5053777;28;20202;-85
2022/05/12 10:29:26;;;;;;;2.70;1.13;;;;;;;;;;5053946;28;20287;-85
2022/05/12 10:31:56;;;;;;;2.85;1.30;;;;;;;;;;5054042;28;20185;-86
2022/05/12 10:34:31;;;;;;;4.30;1.38;;;;;;;;;;5037980;28;20254;-86
2022/05/12 10:37:02;;;;;;;3.85;1.88;;;;;;;;;;5036924;28;20292;-87
2022/05/12 10:39:34;;;;;;;1.92;1.00;;;;;;;;;;5057620;28;20690;-85
2022/05/12 10:42:13;;;;;;;3.08;1.30;;;;;;;;;;5057738;28;20213;-85
2022/05/12 10:44:53;;;;;;;3.33;1.25;;;;;;;;;;5057717;28;20252;-86
2022/05/12 10:47:24;;;;;;;1.98;1.17;;;;;;;;;;5058180;28;20182;-85
2022/05/12 10:49:57;;;;;;;1.40;0.85;;;;;;;;;;5058296;28;20239;-86
2022/05/12 10:52:27;;;;;;;1.90;0.98;;;;;;;;;;5058745;28;20206;-88
2022/05/12 10:55:09;;;;;;;1.17;0.95;;;;;;;;;;5059993;28;20659;-86
2022/05/12 10:57:42;;;;;;;2.45;1.00;;;;;;;;;;5053175;28;20229;-86
2022/05/12 11:00:12;;;;;;;3.33;1.23;;;;;;;;;;5053102;28;20244;-85
2022/05/12 11:02:41;;;;;;;2.63;1.17;;;;;;;;;;5054451;28;20206;-85
2022/05/12 11:05:15;;;;;;;1.95;1.20;;;;;;;;;;5045174;28;20230;-84
2022/05/12 11:07:44;;;;;;;3.92;1.33;;;;;;;;;;5034722;28;20191;-85
2022/05/12 11:10:26;;;;;;;3.33;0.90;;;;;;;;;;5035336;28;20242;-84
2022/05/12 11:12:55;;;;;;;2.20;0.80;;;;;;;;;;5053513;28;20210;-86
2022/05/12 11:15:23;;;;;;;3.15;1.75;;;;;;;;;;5053499;28;20241;-86
2022/05/12 11:17:55;;;;;;;2.22;1.13;;;;;;;;;;5054889;28;20214;-86
2022/05/12 11:20:25;;;;;;;1.85;1.02;;;;;;;;;;5054227;28;20238;-86
2022/05/12 11:22:59;;;;;;;1.38;1.02;;;;;;;;;;5054982;28;20257;-85
2022/05/12 11:25:30;;;;;;;2.50;1.25;;;;;;;;;;5054979;28;20321;-87
2022/05/12 11:30:49;;;;;;;1.60;1.10;;;;;;;;;;5056104;28;20601;-85
2022/05/12 11:33:22;;;;;;;1.10;1.00;;;;;;;;;;5057311;28;20237;-86
2022/05/12 11:35:52;;;;;;;3.15;1.70;;;;;;;;;;5056391;28;20249;-85
2022/05/12 11:38:34;;;;;;;3.67;1.20;;;;;;;;;;5057392;28;20206;-87
2022/05/12 11:41:01;;;;;;;1.55;0.90;;;;;;;;;;5052445;28;20216;-86
2022/05/12 11:46:53;;;;;;;1.48;0.98;;;;;;;;;;5038018;28;20651;-84
2022/05/12 11:49:34;;;;;;;3.33;1.30;;;;;;;;;;5037511;28;20237;-84
2022/05/12 11:52:17;;;;;;;3.45;1.10;;;;;;;;;;5037466;28;20207;-84
2022/05/12 11:54:51;;;;;;;2.47;1.00;;;;;;;;;;5033766;28;20238;-86
2022/05/12 11:57:22;;;;;;;1.92;1.10;;;;;;;;;;5034929;28;20579;-88
2022/05/12 11:59:50;;;;;;;3.47;1.02;;;;;;;;;;5034017;28;20238;-86
2022/05/12 12:02:36;;;;;;;2.38;1.20;;;;;;;;;;5033949;28;20206;-86
2022/05/12 12:05:04;;;;;;;2.83;1.08;;;;;;;;;;5032622;28;20833;-87
2022/05/12 12:07:50;;;;;;;2.78;1.23;;;;;;;;;;5033939;28;20217;-85
2022/05/12 12:10:31;;;;;;;1.40;1.15;;;;;;;;;;5033281;28;20234;-86
2022/05/12 12:13:00;;;;;;;3.20;0.90;;;;;;;;;;5033307;28;20231;-86
2022/05/12 12:16:00;;;;;;;2.45;0.95;;;;;;;;;;5032950;28;20328;-87
2022/05/12 12:18:42;;;;;;;2.28;1.15;;;;;;;;;;5043802;28;20265;-86
2022/05/12 12:21:24;;;;;;;1.38;0.90;;;;;;;;;;5056455;28;20206;-87
2022/05/12 12:23:59;;;;;;;2.47;1.25;;;;;;;;;;5044714;28;20234;-84
2022/05/12 12:26:32;;;;;;;3.95;1.15;;;;;;;;;;5046886;28;20193;-86
2022/05/12 12:29:04;;;;;;;4.03;1.40;;;;;;;;;;5052259;28;20324;-88
2022/05/12 12:31:34;;;;;;;2.80;1.02;;;;;;;;;;5053480;28;20191;-86
2022/05/12 12:34:09;;;;;;;2.00;0.88;;;;;;;;;;5052678;28;20238;-88
2022/05/12 12:36:56;;;;;;;3.72;1.23;;;;;;;;;;5036012;28;20229;-87
2022/05/12 12:39:50;;;;;;;3.53;1.40;;;;;;;;;;5032443;28;20246;-86
2022/05/12 12:42:33;;;;;;;3.90;1.25;;;;;;;;;;4987038;28;20214;-87
2022/05/12 12:45:05;;;;;;;2.88;1.13;;;;;;;;;;5032089;28;20266;-86
2022/05/12 12:47:36;;;;;;;1.70;1.00;;;;;;;;;;5033192;28;20191;-88
2022/05/12 12:50:15;;;;;;;1.67;1.00;;;;;;;;;;5032474;28;20284;-87
2022/05/12 12:52:43;;;;;;;1.38;1.10;;;;;;;;;;5032430;28;20730;-87
2022/05/12 12:58:04;;;;;;;1.15;1.05;;;;;;;;;;5053012;28;20221;-87
2022/05/12 13:00:34;;;;;;;2.55;1.23;;;;;;;;;;5051749;28;20303;-86
2022/05/12 13:03:01;;;;;;;4.25;1.17;;;;;;;;;;5052607;28;20226;-85
2022/05/12 13:05:29;;;;;;;2.67;1.00;;;;;;;;;;5051647;28;20245;-88
2022/05/12 13:07:58;;;;;;;3.90;1.20;;;;;;;;;;5053144;28;20257;-88
2022/05/12 13:10:26;;;;;;;1.05;0.73;;;;;;;;;;5053402;28;20313;-88
2022/05/12 13:12:55;;;;;;;2.15;1.25;;;;;;;;;;5053297;28;20202;-85
2022/05/12 13:15:24;;;;;;;1.65;0.90;;;;;;;;;;5051679;28;20487;-88
2022/05/12 13:17:52;;;;;;;1.60;0.93;;;;;;;;;;5053007;28;20278;-85
2022/05/12 13:20:22;;;;;;;5.88;1.67;;;;;;;;;;5052735;28;20238;-86
2022/05/12 13:22:51;;;;;;;1.90;1.00;;;;;;;;;;5053199;28;20677;-88
2022/05/12 13:25:20;;;;;;;2.15;1.00;;;;;;;;;;5051904;28;20300;-87
2022/05/12 13:27:48;;;;;;;3.05;0.95;;;;;;;;;;5053932;28;20202;-86
2022/05/12 13:30:16;;;;;;;1.30;0.85;;;;;;;;;;5052936;28;20729;-88
2022/05/12 13:32:48;;;;;;;1.90;1.10;;;;;;;;;;5053818;28;20206;-86
2022/05/12 13:35:17;;;;;;;1.52;0.98;;;;;;;;;;5052784;28;20237;-86
2022/05/12 13:37:52;;;;;;;2.72;0.90;;;;;;;;;;5067623;28;20229;-86
2022/05/12 13:40:39;;;;;;;2.30;1.15;;;;;;;;;;5057535;28;20234;-87
2022/05/12 13:43:12;;;;;;;1.77;1.13;;;;;;;;;;5054531;28;20261;-88
2022/05/12 13:45:41;;;;;;;3.90;1.30;;;;;;;;;;5048979;28;20198;-86
2022/05/12 13:48:15;;;;;;;2.17;0.93;;;;;;;;;;5055634;28;20293;-85
2022/05/12 13:50:44;;;;;;;1.30;0.80;;;;;;;;;;5053156;28;20190;-85
2022/05/12 13:53:12;;;;;;;1.98;0.90;;;;;;;;;;5076679;23;20234;-83
2022/05/12 13:55:39;;;;;;;2.63;0.85;;;;;;;;;;5035424;28;20206;-84
2022/05/12 13:58:12;;;;;;;3.72;1.23;;;;;;;;;;5050033;28;20226;-87
2022/05/12 14:00:40;;;;;;;2.53;0.93;;;;;;;;;;5050062;28;20216;-85
2022/05/12 14:03:17;;;;;;;2.72;1.30;;;;;;;;;;5028796;28;20658;-87
2022/05/12 14:05:44;;;;;;;2.33;1.02;;;;;;;;;;5011933;28;20195;-85
2022/05/12 14:08:14;;;;;;;2.55;1.25;;;;;;;;;;5028664;28;20191;-90
2022/05/12 14:10:43;;;;;;;1.45;0.73;;;;;;;;;;5022367;28;20195;-84
2022/05/12 14:21:37;;;;;;;4.97;1.08;;;;;;;;;;5006274;28;20337;-88
2022/05/12 14:24:05;;;;;;;1.65;0.80;;;;;;;;;;5031716;28;20235;-89
2022/05/12 14:26:32;;;;;;;2.55;1.17;;;;;;;;;;5031511;28;20207;-87
2022/05/12 14:28:59;;;;;;;3.25;0.90;;;;;;;;;;5031040;28;20249;-88
2022/05/12 14:31:27;;;;;;;2.03;1.05;;;;;;;;;;5031806;28;20218;-88
2022/05/12 14:33:55;;;;;;;2.67;1.08;;;;;;;;;;5030721;28;20238;-88
2022/05/12 14:36:22;;;;;;;1.30;0.80;;;;;;;;;;5030869;28;20211;-88
2022/05/12 14:38:50;;;;;;;4.22;0.88;;;;;;;;;;5030820;28;20237;-88
2022/05/12 14:41:18;;;;;;;1.52;1.10;;;;;;;;;;5031862;28;20210;-86
2022/05/12 14:43:45;;;;;;;1.85;1.38;;;;;;;;;;5031262;28;20238;-87
2022/05/12 14:46:12;;;;;;;1.08;0.75;;;;;;;;;;5032071;28;20211;-89
2022/05/12 14:48:43;;;;;;;1.88;1.08;;;;;;;;;;5033102;28;20234;-89
2022/05/12 14:51:12;;;;;;;1.63;1.00;;;;;;;;;;5032533;28;20194;-90
2022/05/12 14:53:39;;;;;;;0.98;0.73;;;;;;;;;;5032476;28;20235;-88
2022/05/12 14:56:06;;;;;;;2.38;0.95;;;;;;;;;;5033384;28;20689;-90
2022/05/12 14:58:34;;;;;;;0.93;0.73;;;;;;;;;;5035192;28;20241;-87
2022/05/12 15:01:01;;;;;;;0.88;0.60;;;;;;;;;;5036363;28;20218;-88
2022/05/12 15:03:28;;;;;;;2.13;0.90;;;;;;;;;;5037404;28;20238;-89
2022/05/12 15:05:55;;;;;;;2.22;0.70;;;;;;;;;;5037451;28;20226;-89
2022/05/12 15:08:24;;;;;;;1.70;0.75;;;;;;;;;;5031959;28;20207;-88
2022/05/12 15:10:54;;;;;;;2.05;1.25;;;;;;;;;;5033718;28;20215;-89
2022/05/12 15:13:21;;;;;;;2.60;1.08;;;;;;;;;;5032557;28;20237;-88
2022/05/12 15:15:49;;;;;;;1.02;1.00;;;;;;;;;;5031196;28;20287;-83
2022/05/12 15:21:23;;;;;;;6.20;1.25;;;;;;;;;;5039327;28;20202;-83
2022/05/12 15:23:52;;;;;;;1.90;0.95;;;;;;;;;;5032718;28;20261;-85
2022/05/12 15:26:20;;;;;;;3.72;1.00;;;;;;;;;;5036352;28;20294;-83
2022/05/12 15:28:47;;;;;;;3.42;1.00;;;;;;;;;;5041646;28;20230;-88
2022/05/12 15:31:16;;;;;;;3.03;1.02;;;;;;;;;;5054878;28;20210;-86
2022/05/12 15:33:43;;;;;;;2.67;0.93;;;;;;;;;;5054991;28;20234;-85
2022/05/12 15:36:18;;;;;;;2.80;1.13;;;;;;;;;;5055846;28;20219;-86